Time;durP1;ratioP1;P1;durP2;ratioP2;P2;SDS_P1;SDS_P2;PMS_P1;PMS_P2;Temp;Humidity;BMP_temperature;BMP_pressure;BME280_temperature;BME280_humidity;BME280_pressure;Samples;Min_cycle;Max_cycle;Signal;HPM_P1;HPM_P2
2022/09/20 00:01:35;;;;;;;;;;;12.40;99.90;;;;;;5033181;28;19967;-69
2022/09/20 00:04:05;;;;;;;;;;;12.50;99.90;;;;;;5037095;28;20050;-70
2022/09/20 00:06:34;;;;;;;;;;;12.40;99.90;;;;;;5034886;28;19977;-70
2022/09/20 00:09:03;;;;;;;;;;;12.40;99.90;;;;;;5032744;28;19963;-70
2022/09/20 00:11:31;;;;;;;;;;;12.40;99.90;;;;;;5036346;28;19959;-70
2022/09/20 00:14:00;;;;;;;;;;;12.50;99.90;;;;;;5036126;28;19966;-70
2022/09/20 00:16:30;;;;;;;;;;;12.50;99.90;;;;;;5033562;28;19963;-69
2022/09/20 00:18:58;;;;;;;;;;;12.50;99.90;;;;;;5029040;28;19963;-70
2022/09/20 00:21:27;;;;;;;;;;;12.50;99.90;;;;;;5033714;28;20454;-70
2022/09/20 00:23:56;;;;;;;;;;;12.50;99.90;;;;;;5044436;28;19969;-70
2022/09/20 00:26:24;;;;;;;;;;;12.60;99.90;;;;;;5037265;28;19969;-69
2022/09/20 00:28:52;;;;;;;;;;;12.50;99.90;;;;;;5042733;28;20432;-68
2022/09/20 00:31:20;;;;;;;;;;;12.50;99.90;;;;;;5035850;28;19997;-70
2022/09/20 00:36:42;;;;;;;;;;;12.50;99.90;;;;;;5007920;28;19963;-70
2022/09/20 00:39:12;;;;;;;;;;;12.40;99.90;;;;;;5040320;28;19967;-70
2022/09/20 00:41:40;;;;;;;;;;;12.40;99.90;;;;;;5031360;28;20050;-69
2022/09/20 00:44:22;;;;;;;;;;;12.30;99.90;;;;;;5038852;28;19963;-68
2022/09/20 00:46:50;;;;;;;;;;;12.30;99.90;;;;;;5031400;28;19990;-69
2022/09/20 00:49:19;;;;;;;;;;;12.20;99.90;;;;;;5030065;28;19967;-70
2022/09/20 00:51:48;;;;;;;;;;;12.20;99.90;;;;;;5029965;28;19990;-69
2022/09/20 00:54:19;;;;;;;;;;;12.10;99.90;;;;;;5030156;28;19969;-70
2022/09/20 00:56:48;;;;;;;;;;;12.10;99.90;;;;;;5030293;28;20420;-70
2022/09/20 00:59:18;;;;;;;;;;;12.10;99.90;;;;;;5029981;28;19963;-69
2022/09/20 01:01:48;;;;;;;;;;;12.10;99.90;;;;;;5030813;28;19959;-69
2022/09/20 01:04:16;;;;;;;;;;;12.00;99.90;;;;;;5027824;28;19989;-69
2022/09/20 01:06:45;;;;;;;;;;;12.00;99.90;;;;;;5028568;28;19974;-69
2022/09/20 01:09:14;;;;;;;;;;;11.90;99.90;;;;;;5028503;28;19974;-69
2022/09/20 01:11:43;;;;;;;;;;;11.90;99.90;;;;;;5026044;28;19977;-69
2022/09/20 01:14:13;;;;;;;;;;;11.80;99.90;;;;;;5030518;28;19973;-68
2022/09/20 01:16:41;;;;;;;;;;;11.80;99.90;;;;;;5029754;28;19967;-69
2022/09/20 01:19:13;;;;;;;;;;;11.70;99.90;;;;;;5031699;28;20507;-69
2022/09/20 01:21:41;;;;;;;;;;;11.70;99.90;;;;;;5027225;28;19967;-72
2022/09/20 01:24:14;;;;;;;;;;;11.70;99.90;;;;;;5027798;28;20448;-69
2022/09/20 01:27:03;;;;;;;;;;;11.60;99.90;;;;;;5029523;28;19969;-70
2022/09/20 01:29:44;;;;;;;;;;;11.60;99.90;;;;;;5025391;28;20342;-67
2022/09/20 01:32:13;;;;;;;;;;;11.60;99.90;;;;;;5024997;28;20342;-70
2022/09/20 01:34:44;;;;;;;;;;;11.60;99.90;;;;;;5026209;28;19973;-69
2022/09/20 01:37:15;;;;;;;;;;;11.60;99.90;;;;;;5026306;28;20338;-70
2022/09/20 01:39:47;;;;;;;;;;;11.60;99.90;;;;;;5028835;28;19967;-70
2022/09/20 01:42:14;;;;;;;;;;;11.60;99.90;;;;;;5025564;28;19959;-69
2022/09/20 01:44:47;;;;;;;;;;;11.60;99.90;;;;;;5025505;28;19967;-69
2022/09/20 01:47:19;;;;;;;;;;;11.50;99.90;;;;;;5025982;28;20547;-69
2022/09/20 01:49:52;;;;;;;;;;;11.50;99.90;;;;;;5027475;28;19969;-69
2022/09/20 01:52:33;;;;;;;;;;;11.50;99.90;;;;;;5028316;28;20330;-68
2022/09/20 01:55:10;;;;;;;;;;;11.40;99.90;;;;;;5027333;28;20343;-69
2022/09/20 01:57:46;;;;;;;;;;;11.40;99.90;;;;;;5028012;28;19959;-69
2022/09/20 02:00:16;;;;;;;;;;;11.30;99.90;;;;;;5027565;28;19970;-68
2022/09/20 02:03:04;;;;;;;;;;;11.30;99.90;;;;;;5028998;28;20045;-69
2022/09/20 02:05:56;;;;;;;;;;;11.20;99.90;;;;;;5023753;28;19963;-68
2022/09/20 02:08:36;;;;;;;;;;;11.20;99.90;;;;;;5028842;28;19959;-68
2022/09/20 02:11:05;;;;;;;;;;;11.20;99.90;;;;;;5026028;28;19963;-68
2022/09/20 02:13:41;;;;;;;;;;;11.20;99.90;;;;;;5027632;28;20087;-68
2022/09/20 02:16:23;;;;;;;;;;;11.20;99.90;;;;;;5028640;28;20652;-68
2022/09/20 02:18:57;;;;;;;;;;;11.20;99.90;;;;;;5024907;28;20060;-69
2022/09/20 02:21:29;;;;;;;;;;;11.20;99.90;;;;;;5027448;28;19959;-68
2022/09/20 02:24:03;;;;;;;;;;;11.20;99.90;;;;;;5028561;28;19967;-68
2022/09/20 02:26:39;;;;;;;;;;;11.20;99.90;;;;;;5028142;28;19970;-69
2022/09/20 02:29:13;;;;;;;;;;;11.10;99.90;;;;;;5026958;28;19963;-69
2022/09/20 02:31:52;;;;;;;;;;;11.20;99.90;;;;;;4954193;28;1986192;-69
2022/09/20 02:34:29;;;;;;;;;;;11.30;99.90;;;;;;5018240;28;20017;-69
2022/09/20 02:37:05;;;;;;;;;;;11.20;99.90;;;;;;5012336;28;19972;-68
2022/09/20 02:39:35;;;;;;;;;;;11.10;99.90;;;;;;5013522;28;19967;-68
2022/09/20 02:42:07;;;;;;;;;;;11.10;99.90;;;;;;5024928;28;19963;-69
2022/09/20 02:44:40;;;;;;;;;;;11.10;99.90;;;;;;5032081;28;20365;-69
2022/09/20 02:47:14;;;;;;;;;;;11.10;99.90;;;;;;5031355;28;19968;-69
2022/09/20 02:49:51;;;;;;;;;;;11.10;99.90;;;;;;5030073;28;19967;-69
2022/09/20 02:52:23;;;;;;;;;;;11.10;99.90;;;;;;5031721;28;20029;-69
2022/09/20 02:54:54;;;;;;;;;;;11.00;99.90;;;;;;5033737;28;20452;-70
2022/09/20 02:57:25;;;;;;;;;;;11.00;99.90;;;;;;5030025;28;19971;-69
2022/09/20 02:59:56;;;;;;;;;;;11.00;99.90;;;;;;5033547;28;20347;-69
2022/09/20 03:02:27;;;;;;;;;;;11.00;99.90;;;;;;5031076;28;20447;-69
2022/09/20 03:05:02;;;;;;;;;;;11.00;99.90;;;;;;5032207;28;19967;-69
2022/09/20 03:07:34;;;;;;;;;;;11.00;99.90;;;;;;5031819;28;20474;-69
2022/09/20 03:10:06;;;;;;;;;;;11.00;99.90;;;;;;5033011;28;20362;-68
2022/09/20 03:12:37;;;;;;;;;;;11.00;99.90;;;;;;5033019;28;19969;-68
2022/09/20 03:15:12;;;;;;;;;;;11.00;99.90;;;;;;5032643;28;19968;-69
2022/09/20 03:17:46;;;;;;;;;;;10.90;99.90;;;;;;5032076;28;19967;-69
2022/09/20 03:20:20;;;;;;;;;;;10.90;99.90;;;;;;5031612;28;19967;-69
2022/09/20 03:22:52;;;;;;;;;;;11.00;99.90;;;;;;5031796;28;19967;-69
2022/09/20 03:25:30;;;;;;;;;;;11.00;99.90;;;;;;5032435;28;19967;-69
2022/09/20 03:28:03;;;;;;;;;;;11.10;99.90;;;;;;5030400;28;19971;-69
2022/09/20 03:30:40;;;;;;;;;;;11.10;99.90;;;;;;5048780;22;19965;-63
2022/09/20 03:33:13;;;;;;;;;;;11.10;99.90;;;;;;5029720;28;19973;-63
2022/09/20 03:35:58;;;;;;;;;;;11.10;99.90;;;;;;5028836;28;19973;-63
2022/09/20 03:38:34;;;;;;;;;;;11.10;99.90;;;;;;5032144;28;19989;-63
2022/09/20 03:41:08;;;;;;;;;;;11.10;99.90;;;;;;5025168;28;20437;-63
2022/09/20 03:43:48;;;;;;;;;;;11.10;99.90;;;;;;5011257;28;20332;-63
2022/09/20 03:46:17;;;;;;;;;;;11.10;99.90;;;;;;5012866;28;19968;-64
2022/09/20 03:49:12;;;;;;;;;;;11.10;99.90;;;;;;5010475;28;20367;-65
2022/09/20 03:51:45;;;;;;;;;;;11.10;99.90;;;;;;5011590;28;20433;-66
2022/09/20 03:54:26;;;;;;;;;;;11.10;99.90;;;;;;5008882;28;20440;-66
2022/09/20 03:57:12;;;;;;;;;;;11.10;99.90;;;;;;5012510;28;19969;-66
2022/09/20 03:59:51;;;;;;;;;;;11.20;99.90;;;;;;5009542;28;19967;-66
2022/09/20 04:02:36;;;;;;;;;;;11.30;99.90;;;;;;5012361;28;19970;-66
2022/09/20 04:05:07;;;;;;;;;;;11.30;99.90;;;;;;5006925;28;20428;-65
2022/09/20 04:07:42;;;;;;;;;;;11.20;99.90;;;;;;5012225;28;20383;-66
2022/09/20 04:10:13;;;;;;;;;;;11.30;99.90;;;;;;5008805;28;19983;-66
2022/09/20 04:12:46;;;;;;;;;;;11.40;99.90;;;;;;5010619;28;20014;-66
2022/09/20 04:15:29;;;;;;;;;;;11.30;99.90;;;;;;5012393;28;20342;-65
2022/09/20 04:17:59;;;;;;;;;;;11.40;99.90;;;;;;5007654;28;20470;-66
2022/09/20 04:20:31;;;;;;;;;;;11.40;99.90;;;;;;5011363;28;19970;-65
2022/09/20 04:23:02;;;;;;;;;;;11.50;99.90;;;;;;5006737;28;19964;-66
2022/09/20 04:25:35;;;;;;;;;;;11.60;99.90;;;;;;5011857;28;19970;-65
2022/09/20 04:28:12;;;;;;;;;;;11.60;99.90;;;;;;5009796;28;19968;-65
2022/09/20 04:30:42;;;;;;;;;;;11.60;99.90;;;;;;5008123;28;19982;-65
2022/09/20 04:33:14;;;;;;;;;;;11.60;99.90;;;;;;5000612;28;19968;-65
2022/09/20 04:38:34;;;;;;;;;;;11.60;99.90;;;;;;5007827;28;20026;-65
2022/09/20 04:41:15;;;;;;;;;;;11.40;99.90;;;;;;5008808;28;19971;-66
2022/09/20 04:43:57;;;;;;;;;;;11.30;99.90;;;;;;5010806;28;20010;-66
2022/09/20 04:46:43;;;;;;;;;;;11.40;99.90;;;;;;4986793;28;20466;-66
2022/09/20 04:49:30;;;;;;;;;;;11.40;99.90;;;;;;5012238;28;20432;-66
2022/09/20 04:52:15;;;;;;;;;;;11.50;99.90;;;;;;5011516;28;19982;-66
2022/09/20 04:55:01;;;;;;;;;;;11.60;99.90;;;;;;5018704;28;19977;-65
2022/09/20 04:57:52;;;;;;;;;;;11.50;99.90;;;;;;5027990;28;20335;-65
2022/09/20 05:00:21;;;;;;;;;;;11.40;99.90;;;;;;5016471;28;19967;-66
2022/09/20 05:03:02;;;;;;;;;;;11.40;99.90;;;;;;5015264;28;19967;-65
2022/09/20 05:05:40;;;;;;;;;;;11.50;99.90;;;;;;5017204;28;20063;-65
2022/09/20 05:08:26;;;;;;;;;;;11.50;99.90;;;;;;5013208;28;19994;-66
2022/09/20 05:11:08;;;;;;;;;;;11.60;99.90;;;;;;5016668;28;19968;-66
2022/09/20 05:13:42;;;;;;;;;;;11.50;99.90;;;;;;5017257;28;20044;-66
2022/09/20 05:16:17;;;;;;;;;;;11.50;99.90;;;;;;5009613;28;20720;-65
2022/09/20 05:19:12;;;;;;;;;;;11.50;99.90;;;;;;5012417;28;20464;-65
2022/09/20 05:21:54;;;;;;;;;;;11.40;99.90;;;;;;4977356;28;20340;-65
2022/09/20 05:24:34;;;;;;;;;;;11.50;99.90;;;;;;5011020;28;20058;-65
2022/09/20 05:27:07;;;;;;;;;;;11.50;99.90;;;;;;5014043;28;19963;-65
2022/09/20 05:29:41;;;;;;;;;;;11.60;99.90;;;;;;5005283;28;20258;-66
2022/09/20 05:32:17;;;;;;;;;;;11.60;99.90;;;;;;5001725;28;19972;-66
2022/09/20 05:34:49;;;;;;;;;;;11.60;99.90;;;;;;5000692;28;19968;-65
2022/09/20 05:37:22;;;;;;;;;;;11.70;99.90;;;;;;5007664;28;20440;-65
2022/09/20 05:39:53;;;;;;;;;;;11.70;99.90;;;;;;5007306;28;19993;-66
2022/09/20 05:42:27;;;;;;;;;;;11.70;99.90;;;;;;5006187;28;20496;-65
2022/09/20 05:44:59;;;;;;;;;;;11.70;99.90;;;;;;5018996;28;20407;-66
2022/09/20 05:47:32;;;;;;;;;;;11.70;99.90;;;;;;4997009;28;19979;-65
2022/09/20 05:50:04;;;;;;;;;;;11.70;99.90;;;;;;4991886;28;19967;-71
2022/09/20 05:52:38;;;;;;;;;;;11.70;99.90;;;;;;4997276;28;19990;-66
2022/09/20 05:55:13;;;;;;;;;;;11.70;99.90;;;;;;4993632;28;19975;-66
2022/09/20 05:57:47;;;;;;;;;;;11.70;99.90;;;;;;4995194;28;20540;-66
2022/09/20 06:00:19;;;;;;;;;;;11.70;99.90;;;;;;4992948;28;19977;-67
2022/09/20 06:02:52;;;;;;;;;;;11.60;99.90;;;;;;4991686;28;19988;-66
2022/09/20 06:05:27;;;;;;;;;;;11.60;99.90;;;;;;4998576;28;19994;-66
2022/09/20 06:08:14;;;;;;;;;;;11.50;99.90;;;;;;4990863;28;20453;-66
2022/09/20 06:11:03;;;;;;;;;;;11.50;99.90;;;;;;4993612;28;19986;-66
2022/09/20 06:13:40;;;;;;;;;;;11.50;99.90;;;;;;4985151;28;19978;-65
2022/09/20 06:16:12;;;;;;;;;;;11.50;99.90;;;;;;4992513;28;20029;-65
2022/09/20 06:18:43;;;;;;;;;;;11.30;99.90;;;;;;4999293;28;19975;-66
2022/09/20 06:21:16;;;;;;;;;;;11.30;99.90;;;;;;4995698;28;19995;-66
2022/09/20 06:23:44;;;;;;;;;;;11.30;99.90;;;;;;4996365;28;19983;-65
2022/09/20 06:26:16;;;;;;;;;;;11.30;99.90;;;;;;4993840;28;19972;-66
2022/09/20 06:28:47;;;;;;;;;;;11.30;99.90;;;;;;4999144;28;19976;-65
2022/09/20 06:31:16;;;;;;;;;;;11.50;99.90;;;;;;4987856;28;19972;-66
2022/09/20 06:33:49;;;;;;;;;;;11.60;99.90;;;;;;4995947;28;20566;-66
2022/09/20 06:41:53;;;;;;;;;;;11.80;99.90;;;;;;4994091;28;19998;-67
2022/09/20 06:44:21;;;;;;;;;;;11.90;99.90;;;;;;4993392;28;20399;-68
2022/09/20 06:46:53;;;;;;;;;;;11.90;99.90;;;;;;4996523;28;20527;-66
2022/09/20 06:49:20;;;;;;;;;;;12.00;99.90;;;;;;4992314;28;19964;-66
2022/09/20 06:51:49;;;;;;;;;;;12.00;99.90;;;;;;4994497;28;20525;-66
2022/09/20 06:54:18;;;;;;;;;;;12.00;99.90;;;;;;4994422;28;19997;-66
2022/09/20 06:56:47;;;;;;;;;;;12.00;99.90;;;;;;4998428;28;20102;-65
2022/09/20 06:59:15;;;;;;;;;;;12.10;99.90;;;;;;4994892;28;19979;-66
2022/09/20 07:01:43;;;;;;;;;;;12.00;99.90;;;;;;4995288;28;20070;-65
2022/09/20 07:04:12;;;;;;;;;;;12.00;99.90;;;;;;4994931;28;20810;-66
2022/09/20 07:06:40;;;;;;;;;;;12.10;99.90;;;;;;4997625;28;20625;-66
2022/09/20 07:09:10;;;;;;;;;;;12.10;99.90;;;;;;4996324;28;20011;-66
2022/09/20 07:11:38;;;;;;;;;;;12.30;99.90;;;;;;4993148;28;20018;-67
2022/09/20 07:14:06;;;;;;;;;;;12.40;99.90;;;;;;4999236;28;20053;-65
2022/09/20 07:16:35;;;;;;;;;;;12.50;99.90;;;;;;4996940;28;20007;-65
2022/09/20 07:19:04;;;;;;;;;;;12.50;99.90;;;;;;4995231;28;19971;-65
2022/09/20 07:21:33;;;;;;;;;;;12.50;99.90;;;;;;4988053;28;19971;-65
2022/09/20 07:24:01;;;;;;;;;;;12.40;99.90;;;;;;4992220;28;20457;-65
2022/09/20 07:26:30;;;;;;;;;;;12.50;99.90;;;;;;4992936;28;19972;-68
2022/09/20 07:28:59;;;;;;;;;;;12.70;99.90;;;;;;4998409;28;19972;-65
2022/09/20 07:31:27;;;;;;;;;;;12.70;99.90;;;;;;4995571;28;19970;-66
2022/09/20 07:33:55;;;;;;;;;;;12.70;99.90;;;;;;5001780;28;19968;-67
2022/09/20 07:36:23;;;;;;;;;;;12.80;99.90;;;;;;4997118;28;19970;-65
2022/09/20 07:38:52;;;;;;;;;;;13.00;99.90;;;;;;5002497;28;19982;-63
2022/09/20 07:41:21;;;;;;;;;;;13.10;99.90;;;;;;4992709;28;19974;-63
2022/09/20 07:43:51;;;;;;;;;;;13.20;99.90;;;;;;4998419;28;20328;-64
2022/09/20 07:46:21;;;;;;;;;;;13.30;99.90;;;;;;4997567;28;20021;-64
2022/09/20 07:48:48;;;;;;;;;;;13.40;99.90;;;;;;4996493;28;19971;-64
2022/09/20 07:51:16;;;;;;;;;;;13.50;99.90;;;;;;4997684;28;20439;-64
2022/09/20 07:53:44;;;;;;;;;;;13.70;99.90;;;;;;4999331;28;19975;-64
2022/09/20 07:56:15;;;;;;;;;;;13.80;99.90;;;;;;5001492;28;20059;-63
2022/09/20 07:58:43;;;;;;;;;;;14.00;99.90;;;;;;4999901;28;20074;-63
2022/09/20 08:01:19;;;;;;;;;;;14.20;99.90;;;;;;4994586;28;20902;-66
2022/09/20 08:03:47;;;;;;;;;;;14.30;99.90;;;;;;5000430;28;19979;-63
2022/09/20 08:06:17;;;;;;;;;;;14.30;99.90;;;;;;4997948;28;20403;-62
2022/09/20 08:08:45;;;;;;;;;;;14.30;99.90;;;;;;5000581;28;20066;-64
2022/09/20 08:11:15;;;;;;;;;;;14.40;99.90;;;;;;4996186;28;19971;-63
2022/09/20 08:13:43;;;;;;;;;;;14.70;99.90;;;;;;5000330;28;21080;-63
2022/09/20 08:16:31;;;;;;;;;;;14.90;99.90;;;;;;4996611;28;19972;-63
2022/09/20 08:19:00;;;;;;;;;;;15.30;99.90;;;;;;5000902;28;19979;-64
2022/09/20 08:21:30;;;;;;;;;;;15.50;99.90;;;;;;4997585;28;19972;-63
2022/09/20 08:23:58;;;;;;;;;;;15.50;99.90;;;;;;4994407;28;20422;-63
2022/09/20 08:26:29;;;;;;;;;;;15.40;99.90;;;;;;4995672;28;19971;-63
2022/09/20 08:28:58;;;;;;;;;;;15.30;99.90;;;;;;4997860;28;20022;-66
2022/09/20 08:31:26;;;;;;;;;;;15.30;99.90;;;;;;4995250;28;19964;-66
2022/09/20 08:33:55;;;;;;;;;;;15.50;99.90;;;;;;5000076;28;20436;-63
2022/09/20 08:36:23;;;;;;;;;;;15.60;99.90;;;;;;4996813;28;19963;-66
2022/09/20 08:38:51;;;;;;;;;;;15.70;99.90;;;;;;5000613;28;19968;-63
2022/09/20 08:41:43;;;;;;;;;;;15.80;99.90;;;;;;4997914;28;19971;-65
2022/09/20 08:44:13;;;;;;;;;;;15.70;99.90;;;;;;5000927;28;20095;-63
2022/09/20 08:46:43;;;;;;;;;;;15.60;99.90;;;;;;4998683;28;19976;-64
2022/09/20 08:49:12;;;;;;;;;;;15.60;99.90;;;;;;4995788;28;19971;-63
2022/09/20 08:51:41;;;;;;;;;;;15.40;99.90;;;;;;4992884;28;19976;-63
2022/09/20 08:54:13;;;;;;;;;;;15.20;99.90;;;;;;4996588;28;20399;-63
2022/09/20 08:56:43;;;;;;;;;;;15.30;99.90;;;;;;4996699;28;20463;-63
2022/09/20 08:59:13;;;;;;;;;;;15.50;99.90;;;;;;4999748;28;19980;-63
2022/09/20 09:01:42;;;;;;;;;;;15.70;99.90;;;;;;4995413;28;19976;-63
2022/09/20 09:04:12;;;;;;;;;;;15.90;99.90;;;;;;4997543;28;19976;-63
2022/09/20 09:06:40;;;;;;;;;;;16.00;99.90;;;;;;4996817;28;21416;-63
2022/09/20 09:09:12;;;;;;;;;;;16.00;99.90;;;;;;4998863;28;20120;-63
2022/09/20 09:11:40;;;;;;;;;;;16.20;99.90;;;;;;4997310;28;20063;-63
2022/09/20 09:17:07;;;;;;;;;;;16.60;99.90;;;;;;4997981;28;20617;-62
2022/09/20 09:19:43;;;;;;;;;;;16.60;99.90;;;;;;4999652;28;20771;-63
2022/09/20 09:22:10;;;;;;;;;;;16.60;99.90;;;;;;4997918;28;19972;-63
2022/09/20 09:24:38;;;;;;;;;;;16.80;99.90;;;;;;4998185;28;19967;-64
2022/09/20 09:27:08;;;;;;;;;;;16.80;99.90;;;;;;4999586;28;19968;-63
2022/09/20 09:29:48;;;;;;;;;;;16.80;99.90;;;;;;4998561;28;20060;-63
2022/09/20 09:32:20;;;;;;;;;;;17.30;99.90;;;;;;4997986;28;19971;-65
2022/09/20 09:34:47;;;;;;;;;;;17.60;99.90;;;;;;4994514;28;19973;-62
2022/09/20 09:37:24;;;;;;;;;;;17.50;99.90;;;;;;4999761;28;19978;-63
2022/09/20 09:40:06;;;;;;;;;;;17.80;99.90;;;;;;4997519;28;19964;-65
2022/09/20 09:42:35;;;;;;;;;;;18.20;99.90;;;;;;4993254;28;19967;-63
2022/09/20 09:45:25;;;;;;;;;;;18.50;99.90;;;;;;4997261;28;19968;-63
2022/09/20 09:47:53;;;;;;;;;;;18.50;99.90;;;;;;4995644;28;20335;-63
2022/09/20 09:50:23;;;;;;;;;;;18.00;99.90;;;;;;4993129;28;20339;-64
2022/09/20 09:52:58;;;;;;;;;;;18.00;99.90;;;;;;4995939;28;19965;-63
2022/09/20 09:55:29;;;;;;;;;;;18.10;99.90;;;;;;4998587;28;19974;-65
2022/09/20 09:58:01;;;;;;;;;;;18.00;99.90;;;;;;4998229;28;19963;-67
2022/09/20 10:00:34;;;;;;;;;;;17.90;99.90;;;;;;4991807;28;19972;-63
2022/09/20 10:03:23;;;;;;;;;;;18.10;99.90;;;;;;4996984;28;19971;-65
2022/09/20 10:05:58;;;;;;;;;;;18.10;99.90;;;;;;4994963;28;19964;-68
2022/09/20 10:08:32;;;;;;;;;;;18.20;99.90;;;;;;4993900;28;19962;-67
2022/09/20 10:11:05;;;;;;;;;;;18.00;99.90;;;;;;4993851;28;19972;-65
2022/09/20 10:13:36;;;;;;;;;;;17.80;99.90;;;;;;4997642;28;19972;-65
2022/09/20 10:16:14;;;;;;;;;;;18.00;99.90;;;;;;4998505;28;20023;-65
2022/09/20 10:18:46;;;;;;;;;;;17.90;99.90;;;;;;4999651;28;20057;-66
2022/09/20 10:21:21;;;;;;;;;;;17.80;99.90;;;;;;4997988;28;19987;-66
2022/09/20 10:23:56;;;;;;;;;;;17.50;99.90;;;;;;4993393;28;19992;-66
2022/09/20 10:26:42;;;;;;;;;;;17.10;99.90;;;;;;5000494;28;19971;-63
2022/09/20 10:29:15;;;;;;;;;;;16.90;99.90;;;;;;4995412;28;19977;-64
2022/09/20 10:31:48;;;;;;;;;;;16.90;99.90;;;;;;4993019;28;20098;-63
2022/09/20 10:34:38;;;;;;;;;;;16.80;99.90;;;;;;4996408;28;20773;-63
2022/09/20 10:37:09;;;;;;;;;;;16.40;99.90;;;;;;4996072;28;20012;-63
2022/09/20 10:39:39;;;;;;;;;;;16.10;99.90;;;;;;4996533;28;20509;-63
2022/09/20 10:45:07;;;;;;;;;;;15.80;99.90;;;;;;4999247;28;20086;-63
2022/09/20 10:47:40;;;;;;;;;;;15.80;99.90;;;;;;4996421;28;19979;-63
2022/09/20 10:50:18;;;;;;;;;;;15.70;99.90;;;;;;4996888;28;19997;-64
2022/09/20 10:52:53;;;;;;;;;;;15.70;99.90;;;;;;4996495;28;19988;-63
2022/09/20 10:55:30;;;;;;;;;;;15.60;99.90;;;;;;5000208;28;20505;-63
2022/09/20 10:58:06;;;;;;;;;;;15.60;99.90;;;;;;4993831;28;19963;-63
2022/09/20 11:00:41;;;;;;;;;;;15.80;99.90;;;;;;4992828;28;20424;-63
2022/09/20 11:03:19;;;;;;;;;;;16.10;99.90;;;;;;4997062;28;20455;-62
2022/09/20 11:05:55;;;;;;;;;;;16.40;99.90;;;;;;5001221;28;19974;-63
2022/09/20 11:08:26;;;;;;;;;;;17.00;99.90;;;;;;5000353;28;20286;-63
2022/09/20 11:10:55;;;;;;;;;;;17.50;99.90;;;;;;4994640;28;20018;-63
2022/09/20 11:13:26;;;;;;;;;;;17.60;99.90;;;;;;4997525;28;19975;-61
2022/09/20 11:15:58;;;;;;;;;;;18.00;99.90;;;;;;5002682;28;20027;-61
2022/09/20 11:18:31;;;;;;;;;;;18.40;99.90;;;;;;4998940;28;20524;-61
2022/09/20 11:21:03;;;;;;;;;;;18.20;99.90;;;;;;4995934;28;20351;-61
2022/09/20 11:23:36;;;;;;;;;;;17.80;99.90;;;;;;4998544;28;20084;-63
2022/09/20 11:26:07;;;;;;;;;;;17.40;99.90;;;;;;5000247;28;19987;-63
2022/09/20 11:28:38;;;;;;;;;;;16.90;99.90;;;;;;5045309;22;19963;-64
2022/09/20 11:31:08;;;;;;;;;;;16.50;99.90;;;;;;5038657;28;19970;-64
2022/09/20 11:33:40;;;;;;;;;;;16.10;99.90;;;;;;5038987;28;20014;-64
2022/09/20 11:36:10;;;;;;;;;;;16.00;99.90;;;;;;5035196;28;20015;-64
2022/09/20 11:38:40;;;;;;;;;;;15.80;99.90;;;;;;5022874;28;20471;-64
2022/09/20 11:41:10;;;;;;;;;;;15.80;99.90;;;;;;5019582;28;19992;-65
2022/09/20 11:43:41;;;;;;;;;;;15.80;99.90;;;;;;5019077;28;19986;-64
2022/09/20 11:46:11;;;;;;;;;;;15.80;99.90;;;;;;5012765;28;19998;-65
2022/09/20 11:48:42;;;;;;;;;;;15.90;99.90;;;;;;5018817;28;19970;-65
2022/09/20 11:51:25;;;;;;;;;;;16.20;99.90;;;;;;5020805;28;19971;-65
2022/09/20 11:54:09;;;;;;;;;;;16.40;99.90;;;;;;5019390;28;20019;-65
2022/09/20 11:56:37;;;;;;;;;;;17.30;99.90;;;;;;4978706;28;20551;-65
2022/09/20 11:59:07;;;;;;;;;;;18.40;99.90;;;;;;5019111;28;19978;-65
2022/09/20 12:01:36;;;;;;;;;;;18.80;99.90;;;;;;5019521;28;19975;-65
2022/09/20 12:04:10;;;;;;;;;;;19.00;99.90;;;;;;5017339;28;19987;-65
2022/09/20 12:06:59;;;;;;;;;;;19.50;99.90;;;;;;5021099;28;19972;-65
2022/09/20 12:09:35;;;;;;;;;;;20.00;99.90;;;;;;5018667;28;19999;-65
2022/09/20 12:12:14;;;;;;;;;;;20.00;99.80;;;;;;5018126;28;19976;-67
2022/09/20 12:14:42;;;;;;;;;;;20.50;99.90;;;;;;5017983;28;19979;-65
2022/09/20 12:17:24;;;;;;;;;;;20.50;98.60;;;;;;5020843;28;19981;-65
2022/09/20 12:19:53;;;;;;;;;;;21.00;98.50;;;;;;5018455;28;20090;-65
2022/09/20 12:22:28;;;;;;;;;;;21.20;97.80;;;;;;5014569;28;20907;-65
2022/09/20 12:25:14;;;;;;;;;;;21.40;96.90;;;;;;5017416;28;20661;-65
2022/09/20 12:27:58;;;;;;;;;;;21.30;97.00;;;;;;5019439;28;20090;-65
2022/09/20 12:30:25;;;;;;;;;;;21.30;96.10;;;;;;5016715;28;20406;-66
2022/09/20 12:32:57;;;;;;;;;;;20.80;96.70;;;;;;5015374;28;20596;-65
2022/09/20 12:35:54;;;;;;;;;;;20.20;97.40;;;;;;5017878;28;19970;-65
2022/09/20 12:38:37;;;;;;;;;;;19.90;98.20;;;;;;5016961;28;19974;-65
2022/09/20 12:41:08;;;;;;;;;;;19.40;97.50;;;;;;5014755;28;19971;-64
2022/09/20 12:43:37;;;;;;;;;;;19.00;98.40;;;;;;5018407;28;19973;-64
2022/09/20 12:46:05;;;;;;;;;;;18.70;98.90;;;;;;5016200;28;19973;-64
2022/09/20 12:48:38;;;;;;;;;;;18.40;99.60;;;;;;5017410;28;20006;-64
2022/09/20 12:54:05;;;;;;;;;;;17.40;99.90;;;;;;5015309;28;19970;-64
2022/09/20 12:56:36;;;;;;;;;;;17.10;99.90;;;;;;5019646;28;19974;-65
2022/09/20 12:59:06;;;;;;;;;;;16.90;99.90;;;;;;5015535;28;19980;-64
2022/09/20 13:01:38;;;;;;;;;;;17.00;99.90;;;;;;5017394;28;20520;-64
2022/09/20 13:04:24;;;;;;;;;;;17.30;99.90;;;;;;5014453;28;19978;-65
2022/09/20 13:07:14;;;;;;;;;;;17.70;99.90;;;;;;5018321;28;20424;-64
2022/09/20 13:09:43;;;;;;;;;;;18.10;99.90;;;;;;5019572;28;19966;-64
2022/09/20 13:12:13;;;;;;;;;;;18.80;99.90;;;;;;5017781;28;20902;-64
2022/09/20 13:14:41;;;;;;;;;;;18.80;99.90;;;;;;5020580;28;19990;-66
2022/09/20 13:17:13;;;;;;;;;;;18.80;99.90;;;;;;5014807;28;19973;-65
2022/09/20 13:19:43;;;;;;;;;;;18.80;99.90;;;;;;5021013;28;21085;-64
2022/09/20 13:22:13;;;;;;;;;;;18.90;99.90;;;;;;5014236;28;19967;-64
2022/09/20 13:24:43;;;;;;;;;;;18.70;99.90;;;;;;5018494;28;19977;-64
2022/09/20 13:27:14;;;;;;;;;;;18.50;99.90;;;;;;5013084;28;19970;-64
2022/09/20 13:29:46;;;;;;;;;;;18.80;99.90;;;;;;5015570;28;20058;-65
2022/09/20 13:32:17;;;;;;;;;;;19.00;99.90;;;;;;5018003;28;20270;-64
2022/09/20 13:34:45;;;;;;;;;;;19.20;99.90;;;;;;5018759;28;19984;-65
2022/09/20 13:37:22;;;;;;;;;;;19.70;99.90;;;;;;5020693;28;20094;-65
2022/09/20 13:39:53;;;;;;;;;;;19.90;99.90;;;;;;5017162;28;20001;-65
2022/09/20 13:42:22;;;;;;;;;;;19.80;99.90;;;;;;5015718;28;19973;-64
2022/09/20 13:44:50;;;;;;;;;;;19.70;99.90;;;;;;5019410;28;19967;-65
2022/09/20 13:47:22;;;;;;;;;;;19.40;99.90;;;;;;5017320;28;20518;-64
2022/09/20 13:49:49;;;;;;;;;;;19.20;99.90;;;;;;5019769;28;19967;-64
2022/09/20 13:52:25;;;;;;;;;;;18.70;99.90;;;;;;5016500;28;19967;-65
2022/09/20 13:54:54;;;;;;;;;;;18.30;99.90;;;;;;5017928;28;19970;-64
2022/09/20 13:57:26;;;;;;;;;;;18.00;99.90;;;;;;5015702;28;19958;-64
2022/09/20 13:59:55;;;;;;;;;;;17.60;99.90;;;;;;5015115;28;19973;-64
2022/09/20 14:02:25;;;;;;;;;;;17.20;99.90;;;;;;5018203;28;20308;-65
2022/09/20 14:04:55;;;;;;;;;;;17.00;99.90;;;;;;5015614;28;19963;-65
2022/09/20 14:07:24;;;;;;;;;;;16.90;99.90;;;;;;5015448;28;19963;-65
2022/09/20 14:09:52;;;;;;;;;;;16.80;99.90;;;;;;5017883;28;19973;-64
2022/09/20 14:12:21;;;;;;;;;;;16.70;99.90;;;;;;5012395;28;19989;-64
2022/09/20 14:14:51;;;;;;;;;;;16.50;99.90;;;;;;5016046;28;19990;-65
2022/09/20 14:17:20;;;;;;;;;;;16.40;99.90;;;;;;5015856;28;19967;-64
2022/09/20 14:19:49;;;;;;;;;;;16.40;99.90;;;;;;5018413;28;19971;-64
2022/09/20 14:22:18;;;;;;;;;;;16.30;99.90;;;;;;5013394;28;20469;-65
2022/09/20 14:24:58;;;;;;;;;;;16.20;99.90;;;;;;5016664;28;19978;-65
2022/09/20 14:27:26;;;;;;;;;;;16.00;99.90;;;;;;5015338;28;19971;-64
2022/09/20 14:29:55;;;;;;;;;;;15.90;99.90;;;;;;5015424;28;19963;-65
2022/09/20 14:32:44;;;;;;;;;;;15.90;99.90;;;;;;5013875;28;19963;-65
2022/09/20 14:35:14;;;;;;;;;;;16.00;99.90;;;;;;5013492;28;20526;-64
2022/09/20 14:37:43;;;;;;;;;;;16.10;99.90;;;;;;5019684;28;19976;-65
2022/09/20 14:40:22;;;;;;;;;;;16.20;99.90;;;;;;5010392;28;19971;-64
2022/09/20 14:42:51;;;;;;;;;;;16.30;99.90;;;;;;5020280;28;19963;-64
2022/09/20 14:45:23;;;;;;;;;;;16.30;99.90;;;;;;5011958;28;19975;-64
2022/09/20 14:47:53;;;;;;;;;;;16.30;99.90;;;;;;5020217;28;20019;-64
2022/09/20 14:50:26;;;;;;;;;;;16.30;99.90;;;;;;5011605;28;20000;-65
2022/09/20 14:53:02;;;;;;;;;;;16.20;99.90;;;;;;5011320;28;19971;-65
2022/09/20 14:55:31;;;;;;;;;;;16.10;99.90;;;;;;5016625;28;19998;-64
2022/09/20 14:58:07;;;;;;;;;;;16.10;99.90;;;;;;5015567;28;19994;-66
2022/09/20 15:00:47;;;;;;;;;;;16.00;99.90;;;;;;5013819;28;19967;-64
2022/09/20 15:03:15;;;;;;;;;;;16.00;99.90;;;;;;5010345;28;20133;-65
2022/09/20 15:05:45;;;;;;;;;;;16.00;99.90;;;;;;5019801;28;20013;-65
2022/09/20 15:08:14;;;;;;;;;;;16.00;99.90;;;;;;5017225;28;20517;-64
2022/09/20 15:10:41;;;;;;;;;;;16.00;99.90;;;;;;5009465;28;19971;-64